sensor_id;sensor_type;location;lat;lon;timestamp;temperature;humidity
52107;DHT22;38105;52.968;5.974;2022-09-27T00:01:12;10.10;99.90
52107;DHT22;38105;52.968;5.974;2022-09-27T00:03:47;10.10;99.90
52107;DHT22;38105;52.968;5.974;2022-09-27T00:06:24;10.00;99.90
52107;DHT22;38105;52.968;5.974;2022-09-27T00:08:50;10.00;99.90
52107;DHT22;38105;52.968;5.974;2022-09-27T00:11:35;10.10;99.90
52107;DHT22;38105;52.968;5.974;2022-09-27T00:14:02;10.10;99.90
52107;DHT22;38105;52.968;5.974;2022-09-27T00:16:36;10.00;99.90
52107;DHT22;38105;52.968;5.974;2022-09-27T00:19:07;9.90;99.90
52107;DHT22;38105;52.968;5.974;2022-09-27T00:21:37;9.80;99.90
52107;DHT22;38105;52.968;5.974;2022-09-27T00:24:06;10.10;99.90
52107;DHT22;38105;52.968;5.974;2022-09-27T00:26:38;9.90;99.90
52107;DHT22;38105;52.968;5.974;2022-09-27T00:29:03;10.10;99.90
52107;DHT22;38105;52.968;5.974;2022-09-27T00:31:36;10.00;99.90
52107;DHT22;38105;52.968;5.974;2022-09-27T00:34:15;9.90;99.90
52107;DHT22;38105;52.968;5.974;2022-09-27T00:36:42;9.90;99.90
52107;DHT22;38105;52.968;5.974;2022-09-27T00:39:11;9.90;99.90
52107;DHT22;38105;52.968;5.974;2022-09-27T00:41:37;9.90;99.90
52107;DHT22;38105;52.968;5.974;2022-09-27T00:47:26;9.80;99.90
52107;DHT22;38105;52.968;5.974;2022-09-27T00:50:06;10.00;99.90
52107;DHT22;38105;52.968;5.974;2022-09-27T00:55:12;10.00;99.90
52107;DHT22;38105;52.968;5.974;2022-09-27T00:57:45;10.00;99.90
52107;DHT22;38105;52.968;5.974;2022-09-27T01:00:15;10.10;99.90
52107;DHT22;38105;52.968;5.974;2022-09-27T01:02:47;9.80;99.90
52107;DHT22;38105;52.968;5.974;2022-09-27T01:05:18;10.00;99.90
52107;DHT22;38105;52.968;5.974;2022-09-27T01:07:45;9.90;99.90
52107;DHT22;38105;52.968;5.974;2022-09-27T01:10:11;9.90;99.90
52107;DHT22;38105;52.968;5.974;2022-09-27T01:15:52;9.90;99.90
52107;DHT22;38105;52.968;5.974;2022-09-27T01:18:32;9.90;99.90
52107;DHT22;38105;52.968;5.974;2022-09-27T01:21:22;9.80;99.90
52107;DHT22;38105;52.968;5.974;2022-09-27T01:32:28;9.80;99.90
52107;DHT22;38105;52.968;5.974;2022-09-27T01:35:09;9.80;99.90
52107;DHT22;38105;52.968;5.974;2022-09-27T01:43:52;9.80;99.90
52107;DHT22;38105;52.968;5.974;2022-09-27T01:46:43;9.60;99.90
52107;DHT22;38105;52.968;5.974;2022-09-27T01:49:18;9.50;99.90
52107;DHT22;38105;52.968;5.974;2022-09-27T01:51:51;9.60;99.90
52107;DHT22;38105;52.968;5.974;2022-09-27T01:54:26;9.60;99.90
52107;DHT22;38105;52.968;5.974;2022-09-27T01:56:56;9.50;99.90
52107;DHT22;38105;52.968;5.974;2022-09-27T02:02:09;9.50;99.90
52107;DHT22;38105;52.968;5.974;2022-09-27T02:04:39;9.60;99.90
52107;DHT22;38105;52.968;5.974;2022-09-27T02:07:11;9.40;99.90
52107;DHT22;38105;52.968;5.974;2022-09-27T02:10:02;9.60;99.90
52107;DHT22;38105;52.968;5.974;2022-09-27T02:12:32;9.50;99.90
52107;DHT22;38105;52.968;5.974;2022-09-27T02:15:09;9.40;99.90
52107;DHT22;38105;52.968;5.974;2022-09-27T02:17:46;9.40;99.90
52107;DHT22;38105;52.968;5.974;2022-09-27T02:28:39;9.40;99.90
52107;DHT22;38105;52.968;5.974;2022-09-27T02:31:11;9.50;99.90
52107;DHT22;38105;52.968;5.974;2022-09-27T02:36:13;9.50;99.90
52107;DHT22;38105;52.968;5.974;2022-09-27T02:38:43;9.50;99.90
52107;DHT22;38105;52.968;5.974;2022-09-27T02:41:17;9.50;99.90
52107;DHT22;38105;52.968;5.974;2022-09-27T02:43:45;9.40;99.90
52107;DHT22;38105;52.968;5.974;2022-09-27T02:57:10;9.30;99.90
52107;DHT22;38105;52.968;5.974;2022-09-27T02:59:47;9.40;99.90
52107;DHT22;38105;52.968;5.974;2022-09-27T03:02:33;9.20;99.90
52107;DHT22;38105;52.968;5.974;2022-09-27T03:05:10;9.20;99.90
52107;DHT22;38105;52.968;5.974;2022-09-27T03:07:40;9.30;99.90
52107;DHT22;38105;52.968;5.974;2022-09-27T03:10:06;9.20;99.90
52107;DHT22;38105;52.968;5.974;2022-09-27T03:12:35;9.20;99.90
52107;DHT22;38105;52.968;5.974;2022-09-27T03:15:04;9.10;99.90
52107;DHT22;38105;52.968;5.974;2022-09-27T03:17:35;9.10;99.90
52107;DHT22;38105;52.968;5.974;2022-09-27T03:20:07;9.30;99.90
52107;DHT22;38105;52.968;5.974;2022-09-27T03:22:34;9.20;99.90
52107;DHT22;38105;52.968;5.974;2022-09-27T03:25:02;9.10;99.90
52107;DHT22;38105;52.968;5.974;2022-09-27T03:27:28;9.30;99.90
52107;DHT22;38105;52.968;5.974;2022-09-27T03:29:56;9.20;99.90
52107;DHT22;38105;52.968;5.974;2022-09-27T03:32:22;9.30;99.90
52107;DHT22;38105;52.968;5.974;2022-09-27T03:34:51;9.20;99.90
52107;DHT22;38105;52.968;5.974;2022-09-27T03:37:20;9.40;99.90
52107;DHT22;38105;52.968;5.974;2022-09-27T03:39:46;9.40;99.90
52107;DHT22;38105;52.968;5.974;2022-09-27T03:42:17;9.40;99.90
52107;DHT22;38105;52.968;5.974;2022-09-27T03:44:45;9.20;99.90
52107;DHT22;38105;52.968;5.974;2022-09-27T03:47:11;9.20;99.90
52107;DHT22;38105;52.968;5.974;2022-09-27T03:49:39;9.20;99.90
52107;DHT22;38105;52.968;5.974;2022-09-27T03:52:05;9.30;99.90
52107;DHT22;38105;52.968;5.974;2022-09-27T03:54:34;9.20;99.90
52107;DHT22;38105;52.968;5.974;2022-09-27T03:57:02;9.30;99.90
52107;DHT22;38105;52.968;5.974;2022-09-27T03:59:29;9.20;99.90
52107;DHT22;38105;52.968;5.974;2022-09-27T04:01:57;9.00;99.90
52107;DHT22;38105;52.968;5.974;2022-09-27T04:04:22;9.00;99.90
52107;DHT22;38105;52.968;5.974;2022-09-27T04:06:53;9.10;99.90
52107;DHT22;38105;52.968;5.974;2022-09-27T04:09:18;9.00;99.90
52107;DHT22;38105;52.968;5.974;2022-09-27T04:11:44;9.10;99.90
52107;DHT22;38105;52.968;5.974;2022-09-27T04:14:09;9.10;99.90
52107;DHT22;38105;52.968;5.974;2022-09-27T04:16:37;9.20;99.90
52107;DHT22;38105;52.968;5.974;2022-09-27T04:19:08;9.30;99.90
52107;DHT22;38105;52.968;5.974;2022-09-27T04:21:40;9.20;99.90
52107;DHT22;38105;52.968;5.974;2022-09-27T04:24:06;9.30;99.90
52107;DHT22;38105;52.968;5.974;2022-09-27T04:26:34;9.10;99.90
52107;DHT22;38105;52.968;5.974;2022-09-27T04:29:04;9.30;99.90
52107;DHT22;38105;52.968;5.974;2022-09-27T04:31:30;9.30;99.90
52107;DHT22;38105;52.968;5.974;2022-09-27T04:33:56;9.10;99.90
52107;DHT22;38105;52.968;5.974;2022-09-27T04:36:22;9.00;99.90
52107;DHT22;38105;52.968;5.974;2022-09-27T04:38:58;9.10;99.90
52107;DHT22;38105;52.968;5.974;2022-09-27T04:41:25;9.00;99.90
52107;DHT22;38105;52.968;5.974;2022-09-27T04:43:53;9.10;99.90
52107;DHT22;38105;52.968;5.974;2022-09-27T04:46:19;9.00;99.90
52107;DHT22;38105;52.968;5.974;2022-09-27T04:48:46;8.90;99.90
52107;DHT22;38105;52.968;5.974;2022-09-27T04:51:13;8.90;99.90
52107;DHT22;38105;52.968;5.974;2022-09-27T04:53:44;9.00;99.90
52107;DHT22;38105;52.968;5.974;2022-09-27T04:56:14;9.00;99.90
52107;DHT22;38105;52.968;5.974;2022-09-27T04:58:45;9.00;99.90
52107;DHT22;38105;52.968;5.974;2022-09-27T05:01:14;8.90;99.90
52107;DHT22;38105;52.968;5.974;2022-09-27T05:03:42;8.90;99.90
52107;DHT22;38105;52.968;5.974;2022-09-27T05:06:11;8.90;99.90
52107;DHT22;38105;52.968;5.974;2022-09-27T05:08:38;8.80;99.90
52107;DHT22;38105;52.968;5.974;2022-09-27T05:11:04;8.70;99.90
52107;DHT22;38105;52.968;5.974;2022-09-27T05:13:30;8.90;99.90
52107;DHT22;38105;52.968;5.974;2022-09-27T05:16:08;8.80;99.90
52107;DHT22;38105;52.968;5.974;2022-09-27T05:18:36;8.80;99.90
52107;DHT22;38105;52.968;5.974;2022-09-27T05:21:04;8.60;99.90
52107;DHT22;38105;52.968;5.974;2022-09-27T05:23:30;8.70;99.90
52107;DHT22;38105;52.968;5.974;2022-09-27T05:26:05;8.60;99.90
52107;DHT22;38105;52.968;5.974;2022-09-27T05:28:31;8.70;99.90
52107;DHT22;38105;52.968;5.974;2022-09-27T05:31:00;8.50;99.90
52107;DHT22;38105;52.968;5.974;2022-09-27T05:33:29;8.50;99.90
52107;DHT22;38105;52.968;5.974;2022-09-27T05:35:58;8.50;99.90
52107;DHT22;38105;52.968;5.974;2022-09-27T05:38:24;8.60;99.90
52107;DHT22;38105;52.968;5.974;2022-09-27T05:40:50;8.60;99.90
52107;DHT22;38105;52.968;5.974;2022-09-27T05:43:17;8.70;99.90
52107;DHT22;38105;52.968;5.974;2022-09-27T05:45:47;8.50;99.90
52107;DHT22;38105;52.968;5.974;2022-09-27T05:48:13;8.70;99.90
52107;DHT22;38105;52.968;5.974;2022-09-27T05:50:41;8.80;99.90
52107;DHT22;38105;52.968;5.974;2022-09-27T05:53:08;8.70;99.90
52107;DHT22;38105;52.968;5.974;2022-09-27T05:55:34;8.80;99.90
52107;DHT22;38105;52.968;5.974;2022-09-27T05:58:02;8.80;99.90
52107;DHT22;38105;52.968;5.974;2022-09-27T06:00:29;8.80;99.90
52107;DHT22;38105;52.968;5.974;2022-09-27T06:03:02;8.90;99.90
52107;DHT22;38105;52.968;5.974;2022-09-27T06:05:30;8.90;99.90
52107;DHT22;38105;52.968;5.974;2022-09-27T06:08:03;9.00;99.90
52107;DHT22;38105;52.968;5.974;2022-09-27T06:10:30;9.10;99.90
52107;DHT22;38105;52.968;5.974;2022-09-27T06:13:00;9.00;99.90
52107;DHT22;38105;52.968;5.974;2022-09-27T06:15:30;9.10;99.90
52107;DHT22;38105;52.968;5.974;2022-09-27T06:17:56;9.00;99.90
52107;DHT22;38105;52.968;5.974;2022-09-27T06:20:23;9.00;99.90
52107;DHT22;38105;52.968;5.974;2022-09-27T06:22:52;9.10;99.90
52107;DHT22;38105;52.968;5.974;2022-09-27T06:25:18;9.10;99.90
52107;DHT22;38105;52.968;5.974;2022-09-27T06:27:44;9.20;99.90
52107;DHT22;38105;52.968;5.974;2022-09-27T06:30:10;9.30;99.90
52107;DHT22;38105;52.968;5.974;2022-09-27T06:32:39;9.30;99.90
52107;DHT22;38105;52.968;5.974;2022-09-27T06:35:05;9.10;99.90
52107;DHT22;38105;52.968;5.974;2022-09-27T06:37:31;9.20;99.90
52107;DHT22;38105;52.968;5.974;2022-09-27T06:39:57;9.20;99.90
52107;DHT22;38105;52.968;5.974;2022-09-27T06:42:22;9.40;99.90
52107;DHT22;38105;52.968;5.974;2022-09-27T06:44:48;9.80;99.90
52107;DHT22;38105;52.968;5.974;2022-09-27T06:47:16;9.80;99.90
52107;DHT22;38105;52.968;5.974;2022-09-27T06:49:42;9.90;99.90
52107;DHT22;38105;52.968;5.974;2022-09-27T06:52:08;10.00;99.90
52107;DHT22;38105;52.968;5.974;2022-09-27T06:54:35;10.10;99.90
52107;DHT22;38105;52.968;5.974;2022-09-27T06:57:00;10.20;99.90
52107;DHT22;38105;52.968;5.974;2022-09-27T06:59:26;10.30;99.90
52107;DHT22;38105;52.968;5.974;2022-09-27T07:02:24;10.30;99.90
52107;DHT22;38105;52.968;5.974;2022-09-27T07:04:52;10.40;99.90
52107;DHT22;38105;52.968;5.974;2022-09-27T07:07:17;10.70;99.90
52107;DHT22;38105;52.968;5.974;2022-09-27T07:09:45;10.80;99.90
52107;DHT22;38105;52.968;5.974;2022-09-27T07:12:14;10.90;99.90
52107;DHT22;38105;52.968;5.974;2022-09-27T07:14:46;11.00;99.90
52107;DHT22;38105;52.968;5.974;2022-09-27T07:17:16;11.20;99.90
52107;DHT22;38105;52.968;5.974;2022-09-27T07:19:47;11.20;99.90
52107;DHT22;38105;52.968;5.974;2022-09-27T07:22:15;11.30;99.90
52107;DHT22;38105;52.968;5.974;2022-09-27T07:24:41;11.60;99.90
52107;DHT22;38105;52.968;5.974;2022-09-27T07:27:07;11.80;99.90
52107;DHT22;38105;52.968;5.974;2022-09-27T07:29:39;12.00;99.90
52107;DHT22;38105;52.968;5.974;2022-09-27T07:32:05;12.20;99.90
52107;DHT22;38105;52.968;5.974;2022-09-27T07:34:36;12.50;99.90
52107;DHT22;38105;52.968;5.974;2022-09-27T07:37:05;12.60;99.90
52107;DHT22;38105;52.968;5.974;2022-09-27T07:39:33;12.70;99.90
52107;DHT22;38105;52.968;5.974;2022-09-27T07:42:02;13.00;99.90
52107;DHT22;38105;52.968;5.974;2022-09-27T07:44:31;13.40;99.90
52107;DHT22;38105;52.968;5.974;2022-09-27T07:47:06;13.80;99.90
52107;DHT22;38105;52.968;5.974;2022-09-27T07:49:32;14.30;99.90
52107;DHT22;38105;52.968;5.974;2022-09-27T07:52:01;14.70;99.90
52107;DHT22;38105;52.968;5.974;2022-09-27T07:54:28;14.80;99.90
52107;DHT22;38105;52.968;5.974;2022-09-27T07:56:56;14.50;99.90
52107;DHT22;38105;52.968;5.974;2022-09-27T07:59:22;14.10;99.90
52107;DHT22;38105;52.968;5.974;2022-09-27T08:01:48;13.40;99.90
52107;DHT22;38105;52.968;5.974;2022-09-27T08:04:13;12.70;99.90
52107;DHT22;38105;52.968;5.974;2022-09-27T08:06:39;11.90;99.90
52107;DHT22;38105;52.968;5.974;2022-09-27T08:09:05;11.40;99.90
52107;DHT22;38105;52.968;5.974;2022-09-27T08:11:33;11.20;99.90
52107;DHT22;38105;52.968;5.974;2022-09-27T08:14:03;10.90;99.90
52107;DHT22;38105;52.968;5.974;2022-09-27T08:16:29;10.60;99.90
52107;DHT22;38105;52.968;5.974;2022-09-27T08:18:55;10.70;99.90
52107;DHT22;38105;52.968;5.974;2022-09-27T08:21:20;10.70;99.90
52107;DHT22;38105;52.968;5.974;2022-09-27T08:23:51;10.70;99.90
52107;DHT22;38105;52.968;5.974;2022-09-27T08:26:19;10.70;99.90
52107;DHT22;38105;52.968;5.974;2022-09-27T08:28:47;10.80;99.90
52107;DHT22;38105;52.968;5.974;2022-09-27T08:31:18;11.00;99.90
52107;DHT22;38105;52.968;5.974;2022-09-27T08:33:51;10.90;99.90
52107;DHT22;38105;52.968;5.974;2022-09-27T08:36:17;11.10;99.90
52107;DHT22;38105;52.968;5.974;2022-09-27T08:38:48;11.20;99.90
52107;DHT22;38105;52.968;5.974;2022-09-27T08:41:51;11.20;99.90
52107;DHT22;38105;52.968;5.974;2022-09-27T08:44:24;11.30;99.90
52107;DHT22;38105;52.968;5.974;2022-09-27T08:47:03;11.50;99.90
52107;DHT22;38105;52.968;5.974;2022-09-27T08:52:05;11.50;99.90
52107;DHT22;38105;52.968;5.974;2022-09-27T08:54:34;11.40;99.90
52107;DHT22;38105;52.968;5.974;2022-09-27T08:57:03;11.60;99.90
52107;DHT22;38105;52.968;5.974;2022-09-27T08:59:37;11.60;99.90
52107;DHT22;38105;52.968;5.974;2022-09-27T09:02:19;11.90;99.90
52107;DHT22;38105;52.968;5.974;2022-09-27T09:04:49;11.80;99.90
52107;DHT22;38105;52.968;5.974;2022-09-27T09:10:12;12.40;99.90
52107;DHT22;38105;52.968;5.974;2022-09-27T09:13:30;12.40;99.90
52107;DHT22;38105;52.968;5.974;2022-09-27T09:16:16;12.40;99.90
52107;DHT22;38105;52.968;5.974;2022-09-27T09:19:06;12.30;99.90
52107;DHT22;38105;52.968;5.974;2022-09-27T09:32:53;12.30;99.90
52107;DHT22;38105;52.968;5.974;2022-09-27T09:35:27;12.30;99.90
52107;DHT22;38105;52.968;5.974;2022-09-27T09:38:05;12.40;99.90
52107;DHT22;38105;52.968;5.974;2022-09-27T09:40:50;12.40;99.90
52107;DHT22;38105;52.968;5.974;2022-09-27T09:45:50;12.60;99.90
52107;DHT22;38105;52.968;5.974;2022-09-27T09:51:04;13.00;99.90
52107;DHT22;38105;52.968;5.974;2022-09-27T09:56:02;13.10;99.90
52107;DHT22;38105;52.968;5.974;2022-09-27T10:01:20;13.30;99.90
52107;DHT22;38105;52.968;5.974;2022-09-27T10:03:47;13.00;99.90
52107;DHT22;38105;52.968;5.974;2022-09-27T10:06:13;12.60;99.90
52107;DHT22;38105;52.968;5.974;2022-09-27T10:08:40;12.50;99.90
52107;DHT22;38105;52.968;5.974;2022-09-27T10:11:16;12.30;99.90
52107;DHT22;38105;52.968;5.974;2022-09-27T10:13:45;12.20;99.90
52107;DHT22;38105;52.968;5.974;2022-09-27T10:16:15;12.00;99.90
52107;DHT22;38105;52.968;5.974;2022-09-27T10:18:48;11.90;99.90
52107;DHT22;38105;52.968;5.974;2022-09-27T10:21:23;11.70;99.90
52107;DHT22;38105;52.968;5.974;2022-09-27T10:24:14;11.60;99.90
52107;DHT22;38105;52.968;5.974;2022-09-27T10:26:43;11.50;99.90
52107;DHT22;38105;52.968;5.974;2022-09-27T10:29:27;11.40;99.90
52107;DHT22;38105;52.968;5.974;2022-09-27T10:31:53;11.50;99.90
52107;DHT22;38105;52.968;5.974;2022-09-27T10:34:25;11.60;99.90
52107;DHT22;38105;52.968;5.974;2022-09-27T10:37:17;11.60;99.90
52107;DHT22;38105;52.968;5.974;2022-09-27T10:39:45;11.80;99.90
52107;DHT22;38105;52.968;5.974;2022-09-27T10:42:37;12.00;99.90
52107;DHT22;38105;52.968;5.974;2022-09-27T10:45:29;12.20;99.90
52107;DHT22;38105;52.968;5.974;2022-09-27T10:47:56;12.40;99.90
52107;DHT22;38105;52.968;5.974;2022-09-27T10:50:27;12.70;99.90
52107;DHT22;38105;52.968;5.974;2022-09-27T10:53:12;13.00;99.90
52107;DHT22;38105;52.968;5.974;2022-09-27T10:55:42;13.30;99.90
52107;DHT22;38105;52.968;5.974;2022-09-27T10:58:30;13.60;99.90
52107;DHT22;38105;52.968;5.974;2022-09-27T11:01:08;13.80;99.90
52107;DHT22;38105;52.968;5.974;2022-09-27T11:03:44;13.70;99.90
52107;DHT22;38105;52.968;5.974;2022-09-27T11:08:47;14.00;99.90
52107;DHT22;38105;52.968;5.974;2022-09-27T11:11:24;14.40;99.90
52107;DHT22;38105;52.968;5.974;2022-09-27T11:14:00;14.50;99.90
52107;DHT22;38105;52.968;5.974;2022-09-27T11:16:45;14.30;99.90
52107;DHT22;38105;52.968;5.974;2022-09-27T11:38:30;14.30;99.90
52107;DHT22;38105;52.968;5.974;2022-09-27T11:46:32;14.00;99.90
52107;DHT22;38105;52.968;5.974;2022-09-27T11:49:39;13.70;99.90
52107;DHT22;38105;52.968;5.974;2022-09-27T11:57:28;13.70;99.90
52107;DHT22;38105;52.968;5.974;2022-09-27T12:00:04;13.80;99.90
52107;DHT22;38105;52.968;5.974;2022-09-27T12:10:53;13.70;99.90
52107;DHT22;38105;52.968;5.974;2022-09-27T12:13:41;13.80;99.90
52107;DHT22;38105;52.968;5.974;2022-09-27T12:16:15;13.90;99.90
52107;DHT22;38105;52.968;5.974;2022-09-27T12:18:42;14.00;99.90
52107;DHT22;38105;52.968;5.974;2022-09-27T12:21:13;14.20;99.90
52107;DHT22;38105;52.968;5.974;2022-09-27T12:36:50;14.30;99.90
52107;DHT22;38105;52.968;5.974;2022-09-27T12:39:27;14.20;99.90
52107;DHT22;38105;52.968;5.974;2022-09-27T12:41:59;14.10;99.90
52107;DHT22;38105;52.968;5.974;2022-09-27T12:44:28;14.10;99.90
52107;DHT22;38105;52.968;5.974;2022-09-27T12:52:49;14.20;99.90
52107;DHT22;38105;52.968;5.974;2022-09-27T12:55:23;14.30;99.90
52107;DHT22;38105;52.968;5.974;2022-09-27T13:00:24;14.50;99.90
52107;DHT22;38105;52.968;5.974;2022-09-27T13:14:02;13.60;99.90
52107;DHT22;38105;52.968;5.974;2022-09-27T13:16:41;13.00;99.90
52107;DHT22;38105;52.968;5.974;2022-09-27T13:24:54;11.80;99.90
52107;DHT22;38105;52.968;5.974;2022-09-27T13:32:32;11.70;99.90
52107;DHT22;38105;52.968;5.974;2022-09-27T13:37:58;11.70;99.90
52107;DHT22;38105;52.968;5.974;2022-09-27T13:40:38;11.70;99.90
52107;DHT22;38105;52.968;5.974;2022-09-27T13:45:55;11.90;99.90
52107;DHT22;38105;52.968;5.974;2022-09-27T13:48:36;12.00;99.90
52107;DHT22;38105;52.968;5.974;2022-09-27T13:51:17;12.00;99.90
52107;DHT22;38105;52.968;5.974;2022-09-27T13:53:56;12.10;99.90
52107;DHT22;38105;52.968;5.974;2022-09-27T13:56:48;12.20;99.90
52107;DHT22;38105;52.968;5.974;2022-09-27T13:59:30;12.30;99.90
52107;DHT22;38105;52.968;5.974;2022-09-27T14:02:15;12.20;99.90
52107;DHT22;38105;52.968;5.974;2022-09-27T14:04:47;12.40;99.90
52107;DHT22;38105;52.968;5.974;2022-09-27T14:07:22;12.50;99.90
52107;DHT22;38105;52.968;5.974;2022-09-27T14:09:52;12.60;99.90
52107;DHT22;38105;52.968;5.974;2022-09-27T14:12:28;12.70;99.90
52107;DHT22;38105;52.968;5.974;2022-09-27T14:14:57;12.70;99.90
52107;DHT22;38105;52.968;5.974;2022-09-27T14:17:23;12.70;99.90
52107;DHT22;38105;52.968;5.974;2022-09-27T14:19:51;12.70;99.90
52107;DHT22;38105;52.968;5.974;2022-09-27T14:22:21;12.70;99.90
52107;DHT22;38105;52.968;5.974;2022-09-27T14:24:49;12.80;99.90
52107;DHT22;38105;52.968;5.974;2022-09-27T14:27:23;12.80;99.90
52107;DHT22;38105;52.968;5.974;2022-09-27T14:29:57;12.70;99.90
52107;DHT22;38105;52.968;5.974;2022-09-27T14:32:33;12.70;99.90
52107;DHT22;38105;52.968;5.974;2022-09-27T14:35:21;12.60;99.90
52107;DHT22;38105;52.968;5.974;2022-09-27T14:38:14;12.50;99.90
52107;DHT22;38105;52.968;5.974;2022-09-27T14:40:57;12.50;99.90
52107;DHT22;38105;52.968;5.974;2022-09-27T14:43:27;12.40;99.90
52107;DHT22;38105;52.968;5.974;2022-09-27T14:45:59;12.40;99.90
52107;DHT22;38105;52.968;5.974;2022-09-27T14:48:32;12.50;99.90
52107;DHT22;38105;52.968;5.974;2022-09-27T14:53:48;12.50;99.90
52107;DHT22;38105;52.968;5.974;2022-09-27T14:56:17;12.60;99.90
52107;DHT22;38105;52.968;5.974;2022-09-27T14:58:49;12.60;99.90
52107;DHT22;38105;52.968;5.974;2022-09-27T15:01:18;12.60;99.90
52107;DHT22;38105;52.968;5.974;2022-09-27T15:03:46;12.60;99.90
52107;DHT22;38105;52.968;5.974;2022-09-27T15:06:16;12.50;99.90
52107;DHT22;38105;52.968;5.974;2022-09-27T15:08:42;12.50;99.90
52107;DHT22;38105;52.968;5.974;2022-09-27T15:11:17;12.50;99.90
52107;DHT22;38105;52.968;5.974;2022-09-27T15:13:44;12.40;99.90
52107;DHT22;38105;52.968;5.974;2022-09-27T15:16:16;12.40;99.90
52107;DHT22;38105;52.968;5.974;2022-09-27T15:18:47;12.30;99.90
52107;DHT22;38105;52.968;5.974;2022-09-27T15:21:26;12.20;99.90
52107;DHT22;38105;52.968;5.974;2022-09-27T15:23:54;12.20;99.90
52107;DHT22;38105;52.968;5.974;2022-09-27T15:26:25;11.90;99.90
52107;DHT22;38105;52.968;5.974;2022-09-27T15:28:52;11.70;99.90
52107;DHT22;38105;52.968;5.974;2022-09-27T15:31:32;11.50;99.90
52107;DHT22;38105;52.968;5.974;2022-09-27T15:33:59;11.40;99.90
52107;DHT22;38105;52.968;5.974;2022-09-27T15:39:18;11.00;99.90
52107;DHT22;38105;52.968;5.974;2022-09-27T15:42:05;10.80;99.90
52107;DHT22;38105;52.968;5.974;2022-09-27T15:47:00;10.60;99.90
52107;DHT22;38105;52.968;5.974;2022-09-27T15:49:31;10.60;99.90
52107;DHT22;38105;52.968;5.974;2022-09-27T15:52:01;10.40;99.90
52107;DHT22;38105;52.968;5.974;2022-09-27T15:54:31;10.50;99.90
52107;DHT22;38105;52.968;5.974;2022-09-27T15:57:02;10.40;99.90
52107;DHT22;38105;52.968;5.974;2022-09-27T15:59:34;10.40;99.90
52107;DHT22;38105;52.968;5.974;2022-09-27T16:02:05;10.50;99.90
52107;DHT22;38105;52.968;5.974;2022-09-27T16:04:34;10.30;99.90
52107;DHT22;38105;52.968;5.974;2022-09-27T16:07:01;10.30;99.90
52107;DHT22;38105;52.968;5.974;2022-09-27T16:09:28;10.40;99.90
52107;DHT22;38105;52.968;5.974;2022-09-27T16:11:54;10.30;99.90
52107;DHT22;38105;52.968;5.974;2022-09-27T16:14:20;10.30;99.90
52107;DHT22;38105;52.968;5.974;2022-09-27T16:16:48;10.20;99.90
52107;DHT22;38105;52.968;5.974;2022-09-27T16:19:20;10.30;99.90
52107;DHT22;38105;52.968;5.974;2022-09-27T16:21:47;10.40;99.90
52107;DHT22;38105;52.968;5.974;2022-09-27T16:24:16;10.30;99.90
52107;DHT22;38105;52.968;5.974;2022-09-27T16:26:45;10.20;99.90
52107;DHT22;38105;52.968;5.974;2022-09-27T16:29:14;10.30;99.90
52107;DHT22;38105;52.968;5.974;2022-09-27T16:31:42;10.20;99.90
52107;DHT22;38105;52.968;5.974;2022-09-27T16:34:09;10.10;99.90
52107;DHT22;38105;52.968;5.974;2022-09-27T16:36:35;10.00;99.90
52107;DHT22;38105;52.968;5.974;2022-09-27T16:39:02;9.90;99.90
52107;DHT22;38105;52.968;5.974;2022-09-27T16:41:31;10.10;99.90
52107;DHT22;38105;52.968;5.974;2022-09-27T16:43:58;10.10;99.90
52107;DHT22;38105;52.968;5.974;2022-09-27T16:46:24;10.10;99.90
52107;DHT22;38105;52.968;5.974;2022-09-27T16:48:50;10.00;99.90
52107;DHT22;38105;52.968;5.974;2022-09-27T16:51:18;10.00;99.90
52107;DHT22;38105;52.968;5.974;2022-09-27T16:54:04;10.10;99.90
52107;DHT22;38105;52.968;5.974;2022-09-27T16:56:33;10.00;99.90
52107;DHT22;38105;52.968;5.974;2022-09-27T16:59:00;10.30;99.90
52107;DHT22;38105;52.968;5.974;2022-09-27T17:01:28;10.30;99.90
52107;DHT22;38105;52.968;5.974;2022-09-27T17:03:54;10.30;99.90
52107;DHT22;38105;52.968;5.974;2022-09-27T17:06:22;10.20;99.90
52107;DHT22;38105;52.968;5.974;2022-09-27T17:08:48;10.00;99.90
52107;DHT22;38105;52.968;5.974;2022-09-27T17:11:17;10.00;99.90
52107;DHT22;38105;52.968;5.974;2022-09-27T17:13:44;10.00;99.90
52107;DHT22;38105;52.968;5.974;2022-09-27T17:16:12;9.80;99.90
52107;DHT22;38105;52.968;5.974;2022-09-27T17:18:39;10.10;99.90
52107;DHT22;38105;52.968;5.974;2022-09-27T17:21:06;10.00;99.90
52107;DHT22;38105;52.968;5.974;2022-09-27T17:23:34;10.00;99.90
52107;DHT22;38105;52.968;5.974;2022-09-27T17:26:06;10.10;99.90
52107;DHT22;38105;52.968;5.974;2022-09-27T17:28:33;10.10;99.90
52107;DHT22;38105;52.968;5.974;2022-09-27T17:31:04;10.00;99.90
52107;DHT22;38105;52.968;5.974;2022-09-27T17:33:30;10.00;99.90
52107;DHT22;38105;52.968;5.974;2022-09-27T17:36:02;9.90;99.90
52107;DHT22;38105;52.968;5.974;2022-09-27T17:38:30;10.00;99.90
52107;DHT22;38105;52.968;5.974;2022-09-27T17:41:06;10.00;99.90
52107;DHT22;38105;52.968;5.974;2022-09-27T17:43:35;9.80;99.90
52107;DHT22;38105;52.968;5.974;2022-09-27T17:46:06;9.90;99.90
52107;DHT22;38105;52.968;5.974;2022-09-27T17:48:35;9.90;99.90
52107;DHT22;38105;52.968;5.974;2022-09-27T17:51:20;9.90;99.90
52107;DHT22;38105;52.968;5.974;2022-09-27T17:53:48;9.80;99.90
52107;DHT22;38105;52.968;5.974;2022-09-27T17:56:17;9.80;99.90
52107;DHT22;38105;52.968;5.974;2022-09-27T17:58:50;9.80;99.90
52107;DHT22;38105;52.968;5.974;2022-09-27T18:01:21;9.80;99.90
52107;DHT22;38105;52.968;5.974;2022-09-27T18:03:47;9.80;99.90
52107;DHT22;38105;52.968;5.974;2022-09-27T18:06:13;9.80;99.90
52107;DHT22;38105;52.968;5.974;2022-09-27T18:08:41;9.80;99.90
52107;DHT22;38105;52.968;5.974;2022-09-27T18:11:12;9.80;99.90
52107;DHT22;38105;52.968;5.974;2022-09-27T18:13:39;9.80;99.90
52107;DHT22;38105;52.968;5.974;2022-09-27T18:18:33;9.60;99.90
52107;DHT22;38105;52.968;5.974;2022-09-27T18:21:18;9.60;99.90
52107;DHT22;38105;52.968;5.974;2022-09-27T18:23:47;9.50;99.90
52107;DHT22;38105;52.968;5.974;2022-09-27T18:26:14;9.40;99.90
52107;DHT22;38105;52.968;5.974;2022-09-27T18:28:40;9.40;99.90
52107;DHT22;38105;52.968;5.974;2022-09-27T18:31:13;9.40;99.90
52107;DHT22;38105;52.968;5.974;2022-09-27T18:33:39;9.30;99.90
52107;DHT22;38105;52.968;5.974;2022-09-27T18:36:16;9.40;99.90
52107;DHT22;38105;52.968;5.974;2022-09-27T18:38:43;9.40;99.90
52107;DHT22;38105;52.968;5.974;2022-09-27T18:41:11;9.30;99.90
52107;DHT22;38105;52.968;5.974;2022-09-27T18:43:38;9.30;99.90
52107;DHT22;38105;52.968;5.974;2022-09-27T18:46:09;9.30;99.90
52107;DHT22;38105;52.968;5.974;2022-09-27T18:48:36;9.30;99.90
52107;DHT22;38105;52.968;5.974;2022-09-27T18:53:39;9.40;99.90
52107;DHT22;38105;52.968;5.974;2022-09-27T18:56:07;9.40;99.90
52107;DHT22;38105;52.968;5.974;2022-09-27T18:58:34;9.40;99.90
52107;DHT22;38105;52.968;5.974;2022-09-27T19:01:01;9.20;99.90